createdAt,value
2023-04-17T00:00:14.964Z,28.17
2023-04-17T00:11:55.381Z,28.39
2023-04-17T00:17:43.395Z,28.48
2023-04-17T00:23:31.965Z,28.57
2023-04-17T00:29:23.355Z,28.58
2023-04-17T00:35:24.393Z,28.69
2023-04-17T00:40:49.692Z,28.76
2023-04-17T00:46:30.698Z,28.82
2023-04-17T00:52:13.039Z,28.81
2023-04-17T00:58:13.970Z,28.90
2023-04-17T01:06:05.439Z,29.09
2023-04-17T01:09:49.024Z,29.35
2023-04-17T01:15:32.006Z,29.41
2023-04-17T01:26:42.768Z,30.07
2023-04-17T01:30:12.714Z,29.87
2023-04-17T01:30:51.791Z,30.47
2023-04-17T01:35:59.390Z,30.73
2023-04-17T01:41:28.202Z,30.98
2023-04-17T01:46:30.715Z,31.23
2023-04-17T01:51:37.994Z,31.55
2023-04-17T01:56:45.336Z,31.89
2023-04-17T02:01:52.702Z,32.04
2023-04-17T02:06:59.706Z,32.16
2023-04-17T02:12:06.898Z,32.21
2023-04-17T02:17:14.096Z,32.46
2023-04-17T02:22:21.258Z,32.27
2023-04-17T02:27:28.445Z,32.26
2023-04-17T02:32:35.719Z,32.40
2023-04-17T02:37:42.827Z,32.56
2023-04-17T02:42:50.016Z,32.54
2023-04-17T02:47:57.267Z,32.66
2023-04-17T02:53:04.397Z,32.67
2023-04-17T02:58:11.712Z,32.49
2023-04-17T03:03:19.256Z,32.55
2023-04-17T03:08:26.380Z,32.64
2023-04-17T03:13:33.791Z,32.52
2023-04-17T03:18:45.427Z,32.71
2023-04-17T03:23:53.041Z,32.78
2023-04-17T03:29:01.626Z,32.87
2023-04-17T03:34:30.613Z,32.88
2023-04-17T03:39:37.901Z,32.90
2023-04-17T03:44:50.214Z,32.88
2023-04-17T03:50:02.758Z,32.96
2023-04-17T03:55:10.596Z,33.05
2023-04-17T04:00:29.739Z,32.96
2023-04-17T04:05:42.493Z,33.01
2023-04-17T04:10:55.490Z,32.97
2023-04-17T04:16:19.725Z,33.02
2023-04-17T04:21:30.524Z,33.00
2023-04-17T04:26:46.682Z,33.05
2023-04-17T04:32:09.113Z,33.05
2023-04-17T04:37:56.645Z,33.18
2023-04-17T04:43:04.210Z,33.18
2023-04-17T04:48:46.660Z,33.15
2023-04-17T04:53:54.137Z,33.14
2023-04-17T04:59:35.292Z,33.16
2023-04-17T05:04:36.265Z,33.11
2023-04-17T05:09:44.177Z,33.19
2023-04-17T05:15:25.899Z,33.27
2023-04-17T05:20:57.470Z,33.26
2023-04-17T05:26:10.209Z,33.26
2023-04-17T05:31:59.461Z,33.26
2023-04-17T05:37:12.106Z,33.25
2023-04-17T05:42:33.908Z,33.27
2023-04-17T05:48:17.440Z,33.16
2023-04-17T05:54:04.622Z,33.20
2023-04-17T05:59:47.661Z,33.17
2023-04-17T06:05:48.184Z,33.27
2023-04-17T06:11:18.633Z,33.21
2023-04-17T06:16:18.637Z,33.29
2023-04-17T06:21:26.134Z,33.38
2023-04-17T06:26:36.511Z,33.42
2023-04-17T06:31:42.263Z,33.32
2023-04-17T06:36:51.514Z,33.61
2023-04-17T06:41:58.940Z,33.70
2023-04-17T06:47:12.418Z,33.31
2023-04-17T06:52:21.125Z,33.53
2023-04-17T06:57:28.771Z,33.27
2023-04-17T07:02:37.253Z,33.54
2023-04-17T07:07:44.711Z,34.01
2023-04-17T07:12:51.988Z,33.64
2023-04-17T07:17:59.522Z,33.37
2023-04-17T07:23:06.709Z,33.09
2023-04-17T07:28:14.040Z,32.87
2023-04-17T07:33:21.361Z,32.70
2023-04-17T07:38:28.694Z,32.55
2023-04-17T07:43:35.985Z,32.21
2023-04-17T07:48:43.512Z,32.14
2023-04-17T07:53:50.742Z,32.39
2023-04-17T07:58:58.129Z,32.08
2023-04-17T08:04:05.911Z,31.85
2023-04-17T08:09:13.500Z,31.72
2023-04-17T08:14:20.319Z,31.48
2023-04-17T08:19:27.749Z,31.39
2023-04-17T08:24:35.093Z,31.43
2023-04-17T08:29:42.280Z,31.53
2023-04-17T08:34:49.579Z,31.78
2023-04-17T08:39:56.676Z,31.47
2023-04-17T08:45:03.893Z,31.73
2023-04-17T08:50:11.110Z,31.35
2023-04-17T08:55:18.356Z,31.31
2023-04-17T09:00:25.554Z,31.00
2023-04-17T09:05:32.956Z,31.36
2023-04-17T09:10:39.996Z,31.25
2023-04-17T09:15:47.228Z,31.15
2023-04-17T09:20:54.438Z,30.84
2023-04-17T09:26:01.572Z,30.86
2023-04-17T09:31:09.477Z,30.76
2023-04-17T09:36:16.066Z,30.78
2023-04-17T09:41:23.165Z,31.28
2023-04-17T09:46:30.442Z,31.66
2023-04-17T09:51:37.970Z,31.64
2023-04-17T09:56:45.092Z,31.35
2023-04-17T10:01:52.557Z,31.25
2023-04-17T10:06:59.674Z,30.91
2023-04-17T10:12:06.816Z,31.49
2023-04-17T10:17:14.115Z,31.38
2023-04-17T10:22:21.441Z,31.50
2023-04-17T10:27:28.639Z,31.55
2023-04-17T10:32:35.930Z,31.59
2023-04-17T10:37:43.285Z,31.48
2023-04-17T10:42:50.431Z,31.39
2023-04-17T10:47:57.734Z,31.31
2023-04-17T10:53:04.923Z,31.48
2023-04-17T10:58:12.077Z,31.32
2023-04-17T11:03:19.428Z,31.44
2023-04-17T11:08:26.572Z,31.33
2023-04-17T11:13:33.755Z,30.96
2023-04-17T11:18:41.123Z,30.90
2023-04-17T11:23:48.336Z,31.15
2023-04-17T11:28:55.493Z,31.40
2023-04-17T11:34:02.902Z,31.23
2023-04-17T11:39:10.174Z,31.08
2023-04-17T11:44:17.368Z,31.28
2023-04-17T11:49:24.560Z,31.41
2023-04-17T11:54:31.756Z,31.44
2023-04-17T11:59:38.917Z,31.38
2023-04-17T12:04:46.346Z,31.49
2023-04-17T12:09:53.316Z,31.47
2023-04-17T12:15:00.497Z,31.54
2023-04-17T12:20:07.756Z,31.60
2023-04-17T12:25:15.094Z,31.82
2023-04-17T12:30:22.223Z,31.76
2023-04-17T12:35:29.424Z,31.56
2023-04-17T12:40:36.713Z,31.35
2023-04-17T12:45:43.917Z,31.69
2023-04-17T12:50:51.169Z,31.76
2023-04-17T12:55:58.395Z,31.65
2023-04-17T13:01:05.660Z,31.59
2023-04-17T13:06:12.866Z,31.90
2023-04-17T13:11:20.258Z,31.75
2023-04-17T13:16:27.441Z,31.83
2023-04-17T13:21:34.584Z,31.93
2023-04-17T13:26:41.803Z,31.88
2023-04-17T13:31:49.057Z,31.83
2023-04-17T13:36:56.367Z,31.71
2023-04-17T13:42:03.642Z,31.73
2023-04-17T13:47:10.763Z,31.50
2023-04-17T13:52:17.985Z,31.79
2023-04-17T13:57:25.353Z,31.81
2023-04-17T14:02:32.711Z,31.66
2023-04-17T14:07:39.904Z,31.48
2023-04-17T14:12:47.122Z,31.41
2023-04-17T14:17:54.381Z,31.34
2023-04-17T14:23:01.690Z,31.46
2023-04-17T14:28:08.896Z,31.30
2023-04-17T14:33:16.069Z,31.35
2023-04-17T14:38:23.305Z,31.31
2023-04-17T14:43:30.567Z,31.26
2023-04-17T14:48:48.031Z,31.26
2023-04-17T14:53:44.886Z,31.26
2023-04-17T14:58:52.110Z,31.37
2023-04-17T15:03:59.446Z,31.27
2023-04-17T15:09:06.507Z,31.27
2023-04-17T15:14:13.808Z,31.27
2023-04-17T15:19:21.028Z,31.25
2023-04-17T15:24:28.200Z,31.26
2023-04-17T15:29:35.439Z,31.28
2023-04-17T15:34:42.585Z,31.33
2023-04-17T15:39:49.767Z,31.48
2023-04-17T15:44:56.982Z,31.46
2023-04-17T15:50:04.126Z,31.55
2023-04-17T15:55:11.517Z,31.62
2023-04-17T16:00:18.796Z,31.83
2023-04-17T16:05:25.910Z,31.68
2023-04-17T16:10:33.084Z,31.92
2023-04-17T16:15:40.347Z,31.75
2023-04-17T16:20:47.538Z,31.72
2023-04-17T16:25:54.740Z,31.81
2023-04-17T16:31:01.982Z,31.67
2023-04-17T16:36:09.098Z,31.69
2023-04-17T16:41:16.279Z,31.69
2023-04-17T16:46:31.822Z,31.64
2023-04-17T16:51:30.668Z,31.53
2023-04-17T16:56:37.921Z,31.72
2023-04-17T17:01:45.301Z,32.71
2023-04-17T17:06:52.514Z,32.07
2023-04-17T17:11:59.698Z,32.43
2023-04-17T17:17:07.026Z,32.40
2023-04-17T17:22:14.060Z,32.52
2023-04-17T17:27:21.233Z,32.31
2023-04-17T17:32:28.547Z,32.01
2023-04-17T17:37:35.662Z,32.07
2023-04-17T17:42:42.834Z,31.99
2023-04-17T17:47:51.668Z,31.78
2023-04-17T17:52:59.231Z,31.88
2023-04-17T17:58:06.739Z,31.68
2023-04-17T18:03:14.372Z,31.56
2023-04-17T18:08:21.458Z,31.25
2023-04-17T18:13:28.906Z,31.20
2023-04-17T18:18:36.510Z,31.19
2023-04-17T18:23:43.932Z,31.30
2023-04-17T18:28:51.657Z,31.23
2023-04-17T18:33:59.284Z,30.95
2023-04-17T18:39:06.980Z,31.10
2023-04-17T18:44:14.812Z,30.63
2023-04-17T18:49:22.356Z,30.42
2023-04-17T18:54:30.054Z,31.15
2023-04-17T18:59:37.757Z,30.47
2023-04-17T19:04:45.755Z,30.40
2023-04-17T19:09:53.243Z,30.45
2023-04-17T19:15:01.557Z,30.41
2023-04-17T19:20:09.059Z,30.08
2023-04-17T19:25:16.753Z,30.05
2023-04-17T19:30:24.497Z,30.20
2023-04-17T19:35:31.912Z,30.26
2023-04-17T19:40:39.384Z,30.26
2023-04-17T19:45:47.165Z,30.16
2023-04-17T19:50:54.830Z,30.20
2023-04-17T19:56:02.421Z,30.23
2023-04-17T20:01:10.187Z,30.18
2023-04-17T20:06:17.892Z,30.03
2023-04-17T20:11:25.240Z,29.94
2023-04-17T20:16:32.681Z,29.87
2023-04-17T20:21:40.342Z,29.89
2023-04-17T20:26:47.911Z,29.79
2023-04-17T20:31:55.283Z,29.74
2023-04-17T20:37:02.856Z,29.72
2023-04-17T20:42:11.580Z,29.52
2023-04-17T20:47:19.051Z,29.51
2023-04-17T20:52:26.366Z,29.38
2023-04-17T20:57:33.740Z,29.34
2023-04-17T21:02:41.214Z,29.43
2023-04-17T21:07:50.132Z,29.33
2023-04-17T21:12:55.591Z,29.24
2023-04-17T21:18:02.974Z,29.24
2023-04-17T21:23:10.268Z,29.01
2023-04-17T21:28:17.537Z,28.99
2023-04-17T21:33:24.842Z,29.10
2023-04-17T21:38:32.127Z,29.05
2023-04-17T21:43:39.399Z,29.13
2023-04-17T21:48:46.581Z,28.93
2023-04-17T21:53:53.796Z,28.97
2023-04-17T21:59:01.088Z,28.96
2023-04-17T22:04:08.365Z,29.00
2023-04-17T22:09:16.506Z,28.81
2023-04-17T22:14:23.716Z,28.83
2023-04-17T22:19:30.998Z,28.79
2023-04-17T22:24:38.362Z,28.86
2023-04-17T22:29:45.570Z,28.89
2023-04-17T22:34:52.872Z,28.65
2023-04-17T22:40:10.225Z,28.62
2023-04-17T22:45:26.048Z,28.68
2023-04-17T22:50:37.909Z,28.54
2023-04-17T22:56:15.764Z,28.61
2023-04-17T23:01:44.136Z,28.63
2023-04-17T23:07:31.696Z,28.63
2023-04-17T23:12:48.598Z,28.63
2023-04-17T23:23:17.310Z,28.73
2023-04-17T23:29:29.470Z,28.74
2023-04-17T23:30:37.225Z,28.67
2023-04-17T23:33:45.994Z,28.83
2023-04-17T23:39:35.496Z,28.90
2023-04-17T23:44:47.068Z,28.92
2023-04-17T23:49:59.409Z,28.97
2023-04-17T23:55:15.217Z,28.98
